sensor_id;sensor_type;location;lat;lon;timestamp;P1;durP1;ratioP1;P2;durP2;ratioP2
39956;SDS011;48483;44.640;7.494;2023-04-27T00:00:36;3.75;;;1.88;;
39956;SDS011;48483;44.640;7.494;2023-04-27T00:03:03;2.70;;;1.73;;
39956;SDS011;48483;44.640;7.494;2023-04-27T00:05:34;5.18;;;2.08;;
39956;SDS011;48483;44.640;7.494;2023-04-27T00:08:00;3.17;;;1.90;;
39956;SDS011;48483;44.640;7.494;2023-04-27T00:10:27;3.38;;;1.90;;
39956;SDS011;48483;44.640;7.494;2023-04-27T00:12:54;2.80;;;1.77;;
39956;SDS011;48483;44.640;7.494;2023-04-27T00:15:20;4.15;;;1.80;;
39956;SDS011;48483;44.640;7.494;2023-04-27T00:17:47;3.25;;;1.77;;
39956;SDS011;48483;44.640;7.494;2023-04-27T00:20:14;2.53;;;1.55;;
39956;SDS011;48483;44.640;7.494;2023-04-27T00:22:43;4.28;;;1.77;;
39956;SDS011;48483;44.640;7.494;2023-04-27T00:25:10;3.17;;;1.55;;
39956;SDS011;48483;44.640;7.494;2023-04-27T00:27:37;2.67;;;1.83;;
39956;SDS011;48483;44.640;7.494;2023-04-27T00:30:04;3.42;;;1.63;;
39956;SDS011;48483;44.640;7.494;2023-04-27T00:32:33;3.00;;;1.67;;
39956;SDS011;48483;44.640;7.494;2023-04-27T00:34:59;7.13;;;1.30;;
39956;SDS011;48483;44.640;7.494;2023-04-27T00:37:26;1.98;;;1.50;;
39956;SDS011;48483;44.640;7.494;2023-04-27T00:39:54;3.42;;;1.48;;
39956;SDS011;48483;44.640;7.494;2023-04-27T00:42:21;2.05;;;1.27;;
39956;SDS011;48483;44.640;7.494;2023-04-27T00:44:50;3.15;;;1.60;;
39956;SDS011;48483;44.640;7.494;2023-04-27T00:47:17;7.30;;;1.73;;
39956;SDS011;48483;44.640;7.494;2023-04-27T00:49:44;3.17;;;1.60;;
39956;SDS011;48483;44.640;7.494;2023-04-27T00:52:11;3.45;;;1.50;;
39956;SDS011;48483;44.640;7.494;2023-04-27T00:54:37;2.80;;;1.45;;
39956;SDS011;48483;44.640;7.494;2023-04-27T00:57:06;5.82;;;2.05;;
39956;SDS011;48483;44.640;7.494;2023-04-27T00:59:33;3.25;;;1.50;;
39956;SDS011;48483;44.640;7.494;2023-04-27T01:02:00;5.10;;;1.80;;
39956;SDS011;48483;44.640;7.494;2023-04-27T01:04:27;3.75;;;1.83;;
39956;SDS011;48483;44.640;7.494;2023-04-27T01:06:56;3.70;;;1.60;;
39956;SDS011;48483;44.640;7.494;2023-04-27T01:09:23;1.88;;;1.20;;
39956;SDS011;48483;44.640;7.494;2023-04-27T01:11:50;3.33;;;1.70;;
39956;SDS011;48483;44.640;7.494;2023-04-27T01:14:18;4.05;;;1.83;;
39956;SDS011;48483;44.640;7.494;2023-04-27T01:16:45;4.82;;;1.40;;
39956;SDS011;48483;44.640;7.494;2023-04-27T01:19:12;3.03;;;1.35;;
39956;SDS011;48483;44.640;7.494;2023-04-27T01:21:39;4.07;;;2.50;;
39956;SDS011;48483;44.640;7.494;2023-04-27T01:24:07;2.83;;;1.48;;
39956;SDS011;48483;44.640;7.494;2023-04-27T01:26:36;3.58;;;1.73;;
39956;SDS011;48483;44.640;7.494;2023-04-27T01:29:03;3.28;;;2.10;;
39956;SDS011;48483;44.640;7.494;2023-04-27T01:31:30;5.32;;;2.30;;
39956;SDS011;48483;44.640;7.494;2023-04-27T01:33:56;3.10;;;1.90;;
39956;SDS011;48483;44.640;7.494;2023-04-27T01:36:23;4.25;;;2.50;;
39956;SDS011;48483;44.640;7.494;2023-04-27T01:38:50;4.15;;;1.73;;
39956;SDS011;48483;44.640;7.494;2023-04-27T01:41:18;3.75;;;1.67;;
39956;SDS011;48483;44.640;7.494;2023-04-27T01:43:45;2.95;;;2.30;;
39956;SDS011;48483;44.640;7.494;2023-04-27T01:46:12;3.55;;;1.73;;
39956;SDS011;48483;44.640;7.494;2023-04-27T01:48:39;3.22;;;1.70;;
39956;SDS011;48483;44.640;7.494;2023-04-27T01:51:06;2.83;;;1.50;;
39956;SDS011;48483;44.640;7.494;2023-04-27T01:53:33;2.95;;;1.45;;
39956;SDS011;48483;44.640;7.494;2023-04-27T01:56:00;2.67;;;1.70;;
39956;SDS011;48483;44.640;7.494;2023-04-27T01:58:28;2.88;;;1.60;;
39956;SDS011;48483;44.640;7.494;2023-04-27T02:00:55;3.97;;;1.98;;
39956;SDS011;48483;44.640;7.494;2023-04-27T02:03:21;2.67;;;1.80;;
39956;SDS011;48483;44.640;7.494;2023-04-27T02:05:49;2.90;;;1.65;;
39956;SDS011;48483;44.640;7.494;2023-04-27T02:08:16;3.55;;;1.67;;
39956;SDS011;48483;44.640;7.494;2023-04-27T02:10:44;3.22;;;1.55;;
39956;SDS011;48483;44.640;7.494;2023-04-27T02:13:10;2.70;;;1.27;;
39956;SDS011;48483;44.640;7.494;2023-04-27T02:15:39;3.05;;;1.75;;
39956;SDS011;48483;44.640;7.494;2023-04-27T02:18:05;4.35;;;1.80;;
39956;SDS011;48483;44.640;7.494;2023-04-27T02:20:32;2.63;;;1.52;;
39956;SDS011;48483;44.640;7.494;2023-04-27T02:23:00;1.75;;;1.27;;
39956;SDS011;48483;44.640;7.494;2023-04-27T02:25:27;2.33;;;1.60;;
39956;SDS011;48483;44.640;7.494;2023-04-27T02:27:54;3.78;;;1.92;;
39956;SDS011;48483;44.640;7.494;2023-04-27T02:30:21;2.83;;;1.60;;
39956;SDS011;48483;44.640;7.494;2023-04-27T02:32:49;4.45;;;2.10;;
39956;SDS011;48483;44.640;7.494;2023-04-27T02:35:16;3.67;;;1.70;;
39956;SDS011;48483;44.640;7.494;2023-04-27T02:37:42;3.85;;;1.80;;
39956;SDS011;48483;44.640;7.494;2023-04-27T02:40:09;2.47;;;1.73;;
39956;SDS011;48483;44.640;7.494;2023-04-27T02:42:37;4.80;;;2.30;;
39956;SDS011;48483;44.640;7.494;2023-04-27T02:45:04;5.47;;;2.60;;
39956;SDS011;48483;44.640;7.494;2023-04-27T02:47:32;2.90;;;1.65;;
39956;SDS011;48483;44.640;7.494;2023-04-27T02:50:01;2.03;;;1.40;;
39956;SDS011;48483;44.640;7.494;2023-04-27T02:52:32;2.67;;;1.67;;
39956;SDS011;48483;44.640;7.494;2023-04-27T02:54:59;3.35;;;2.35;;
39956;SDS011;48483;44.640;7.494;2023-04-27T02:57:26;4.93;;;2.00;;
39956;SDS011;48483;44.640;7.494;2023-04-27T02:59:53;3.03;;;1.77;;
39956;SDS011;48483;44.640;7.494;2023-04-27T03:02:20;3.08;;;1.70;;
39956;SDS011;48483;44.640;7.494;2023-04-27T03:04:50;3.45;;;1.50;;
39956;SDS011;48483;44.640;7.494;2023-04-27T03:07:20;4.57;;;2.05;;
39956;SDS011;48483;44.640;7.494;2023-04-27T03:09:46;3.85;;;2.05;;
39956;SDS011;48483;44.640;7.494;2023-04-27T03:12:13;2.53;;;1.60;;
39956;SDS011;48483;44.640;7.494;2023-04-27T03:14:40;3.03;;;1.88;;
39956;SDS011;48483;44.640;7.494;2023-04-27T03:17:06;4.45;;;1.83;;
39956;SDS011;48483;44.640;7.494;2023-04-27T03:19:33;2.47;;;1.63;;
39956;SDS011;48483;44.640;7.494;2023-04-27T03:22:00;3.75;;;1.90;;
39956;SDS011;48483;44.640;7.494;2023-04-27T03:24:28;3.72;;;2.10;;
39956;SDS011;48483;44.640;7.494;2023-04-27T03:26:55;4.40;;;1.75;;
39956;SDS011;48483;44.640;7.494;2023-04-27T03:29:22;4.47;;;2.00;;
39956;SDS011;48483;44.640;7.494;2023-04-27T03:31:49;5.15;;;1.70;;
39956;SDS011;48483;44.640;7.494;2023-04-27T03:34:15;3.25;;;1.60;;
39956;SDS011;48483;44.640;7.494;2023-04-27T03:36:42;3.42;;;2.13;;
39956;SDS011;48483;44.640;7.494;2023-04-27T03:39:09;5.45;;;1.77;;
39956;SDS011;48483;44.640;7.494;2023-04-27T03:41:37;3.80;;;1.80;;
39956;SDS011;48483;44.640;7.494;2023-04-27T03:44:04;3.88;;;1.90;;
39956;SDS011;48483;44.640;7.494;2023-04-27T03:46:32;2.80;;;1.80;;
39956;SDS011;48483;44.640;7.494;2023-04-27T03:49:00;3.65;;;1.88;;
39956;SDS011;48483;44.640;7.494;2023-04-27T03:51:26;3.78;;;2.30;;
39956;SDS011;48483;44.640;7.494;2023-04-27T03:53:54;5.32;;;1.98;;
39956;SDS011;48483;44.640;7.494;2023-04-27T03:56:22;2.83;;;1.60;;
39956;SDS011;48483;44.640;7.494;2023-04-27T03:58:50;5.00;;;2.20;;
39956;SDS011;48483;44.640;7.494;2023-04-27T04:01:19;4.20;;;1.90;;
39956;SDS011;48483;44.640;7.494;2023-04-27T04:03:46;3.00;;;1.60;;
39956;SDS011;48483;44.640;7.494;2023-04-27T04:06:13;2.97;;;1.95;;
39956;SDS011;48483;44.640;7.494;2023-04-27T04:08:40;2.72;;;1.80;;
39956;SDS011;48483;44.640;7.494;2023-04-27T04:11:07;4.50;;;3.35;;
39956;SDS011;48483;44.640;7.494;2023-04-27T04:13:35;3.95;;;1.80;;
39956;SDS011;48483;44.640;7.494;2023-04-27T04:16:04;3.17;;;2.20;;
39956;SDS011;48483;44.640;7.494;2023-04-27T04:18:32;4.95;;;2.00;;
39956;SDS011;48483;44.640;7.494;2023-04-27T04:20:58;4.03;;;1.85;;
39956;SDS011;48483;44.640;7.494;2023-04-27T04:23:25;4.43;;;3.03;;
39956;SDS011;48483;44.640;7.494;2023-04-27T04:25:53;4.03;;;1.85;;
39956;SDS011;48483;44.640;7.494;2023-04-27T04:28:22;4.28;;;1.90;;
39956;SDS011;48483;44.640;7.494;2023-04-27T04:30:49;3.30;;;1.77;;
39956;SDS011;48483;44.640;7.494;2023-04-27T04:33:17;2.90;;;1.50;;
39956;SDS011;48483;44.640;7.494;2023-04-27T04:35:44;2.95;;;1.92;;
39956;SDS011;48483;44.640;7.494;2023-04-27T04:38:11;4.07;;;1.80;;
39956;SDS011;48483;44.640;7.494;2023-04-27T04:40:39;4.30;;;2.08;;
39956;SDS011;48483;44.640;7.494;2023-04-27T04:43:07;5.15;;;2.92;;
39956;SDS011;48483;44.640;7.494;2023-04-27T04:45:33;4.97;;;2.22;;
39956;SDS011;48483;44.640;7.494;2023-04-27T04:48:00;5.72;;;2.45;;
39956;SDS011;48483;44.640;7.494;2023-04-27T04:50:28;4.00;;;2.40;;
39956;SDS011;48483;44.640;7.494;2023-04-27T04:52:55;6.40;;;2.13;;
39956;SDS011;48483;44.640;7.494;2023-04-27T04:55:21;4.68;;;2.42;;
39956;SDS011;48483;44.640;7.494;2023-04-27T04:57:50;3.83;;;1.90;;
39956;SDS011;48483;44.640;7.494;2023-04-27T05:00:17;3.75;;;1.83;;
39956;SDS011;48483;44.640;7.494;2023-04-27T05:02:44;5.47;;;2.40;;
39956;SDS011;48483;44.640;7.494;2023-04-27T05:05:10;6.18;;;2.40;;
39956;SDS011;48483;44.640;7.494;2023-04-27T05:07:38;5.78;;;2.47;;
39956;SDS011;48483;44.640;7.494;2023-04-27T05:10:05;7.65;;;2.28;;
39956;SDS011;48483;44.640;7.494;2023-04-27T05:12:32;6.35;;;3.05;;
39956;SDS011;48483;44.640;7.494;2023-04-27T05:14:59;4.45;;;2.35;;
39956;SDS011;48483;44.640;7.494;2023-04-27T05:17:25;4.88;;;2.47;;
39956;SDS011;48483;44.640;7.494;2023-04-27T05:19:52;5.35;;;2.53;;
39956;SDS011;48483;44.640;7.494;2023-04-27T05:22:18;6.93;;;2.60;;
39956;SDS011;48483;44.640;7.494;2023-04-27T05:24:46;5.13;;;2.55;;
39956;SDS011;48483;44.640;7.494;2023-04-27T05:27:13;6.57;;;2.63;;
39956;SDS011;48483;44.640;7.494;2023-04-27T05:29:39;5.38;;;2.22;;
39956;SDS011;48483;44.640;7.494;2023-04-27T05:32:06;6.93;;;2.72;;
39956;SDS011;48483;44.640;7.494;2023-04-27T05:34:33;4.70;;;2.80;;
39956;SDS011;48483;44.640;7.494;2023-04-27T05:36:59;4.65;;;2.80;;
39956;SDS011;48483;44.640;7.494;2023-04-27T05:39:26;5.18;;;2.50;;
39956;SDS011;48483;44.640;7.494;2023-04-27T05:41:54;5.05;;;2.20;;
39956;SDS011;48483;44.640;7.494;2023-04-27T05:44:21;3.63;;;2.35;;
39956;SDS011;48483;44.640;7.494;2023-04-27T05:46:50;5.15;;;2.67;;
39956;SDS011;48483;44.640;7.494;2023-04-27T05:49:16;3.80;;;2.38;;
39956;SDS011;48483;44.640;7.494;2023-04-27T05:51:43;5.68;;;2.65;;
39956;SDS011;48483;44.640;7.494;2023-04-27T05:54:09;5.53;;;2.38;;
39956;SDS011;48483;44.640;7.494;2023-04-27T05:56:36;9.18;;;3.03;;
39956;SDS011;48483;44.640;7.494;2023-04-27T05:59:04;4.60;;;3.35;;
39956;SDS011;48483;44.640;7.494;2023-04-27T06:01:30;5.00;;;2.67;;
39956;SDS011;48483;44.640;7.494;2023-04-27T06:03:57;6.50;;;2.38;;
39956;SDS011;48483;44.640;7.494;2023-04-27T06:06:26;5.65;;;2.53;;
39956;SDS011;48483;44.640;7.494;2023-04-27T06:08:56;5.25;;;1.83;;
39956;SDS011;48483;44.640;7.494;2023-04-27T06:11:23;6.43;;;2.00;;
39956;SDS011;48483;44.640;7.494;2023-04-27T06:13:49;4.65;;;2.08;;
39956;SDS011;48483;44.640;7.494;2023-04-27T06:16:17;4.75;;;2.55;;
39956;SDS011;48483;44.640;7.494;2023-04-27T06:18:44;7.60;;;2.53;;
39956;SDS011;48483;44.640;7.494;2023-04-27T06:21:10;4.00;;;2.30;;
39956;SDS011;48483;44.640;7.494;2023-04-27T06:23:37;4.07;;;2.22;;
39956;SDS011;48483;44.640;7.494;2023-04-27T06:26:04;6.88;;;2.20;;
39956;SDS011;48483;44.640;7.494;2023-04-27T06:28:30;3.80;;;2.72;;
39956;SDS011;48483;44.640;7.494;2023-04-27T06:30:57;3.33;;;2.15;;
39956;SDS011;48483;44.640;7.494;2023-04-27T06:33:25;7.00;;;2.95;;
39956;SDS011;48483;44.640;7.494;2023-04-27T06:35:51;3.67;;;2.35;;
39956;SDS011;48483;44.640;7.494;2023-04-27T06:38:18;5.03;;;2.90;;
39956;SDS011;48483;44.640;7.494;2023-04-27T06:40:48;4.53;;;2.50;;
39956;SDS011;48483;44.640;7.494;2023-04-27T06:43:16;4.35;;;2.60;;
39956;SDS011;48483;44.640;7.494;2023-04-27T06:45:43;5.13;;;3.10;;
39956;SDS011;48483;44.640;7.494;2023-04-27T06:48:09;7.22;;;2.80;;
39956;SDS011;48483;44.640;7.494;2023-04-27T06:50:37;7.30;;;3.65;;
39956;SDS011;48483;44.640;7.494;2023-04-27T06:53:04;5.60;;;3.60;;
39956;SDS011;48483;44.640;7.494;2023-04-27T06:55:30;4.13;;;2.38;;
39956;SDS011;48483;44.640;7.494;2023-04-27T06:57:57;7.30;;;2.60;;
39956;SDS011;48483;44.640;7.494;2023-04-27T07:00:23;6.03;;;2.70;;
39956;SDS011;48483;44.640;7.494;2023-04-27T07:02:50;5.93;;;2.70;;
39956;SDS011;48483;44.640;7.494;2023-04-27T07:05:16;5.40;;;2.70;;
39956;SDS011;48483;44.640;7.494;2023-04-27T07:07:44;6.88;;;2.75;;
39956;SDS011;48483;44.640;7.494;2023-04-27T07:10:11;4.90;;;2.47;;
39956;SDS011;48483;44.640;7.494;2023-04-27T07:12:38;5.72;;;2.20;;
39956;SDS011;48483;44.640;7.494;2023-04-27T07:15:05;10.10;;;3.53;;
39956;SDS011;48483;44.640;7.494;2023-04-27T07:17:33;5.25;;;2.75;;
39956;SDS011;48483;44.640;7.494;2023-04-27T07:19:59;4.00;;;2.58;;
39956;SDS011;48483;44.640;7.494;2023-04-27T07:22:26;6.22;;;2.38;;
39956;SDS011;48483;44.640;7.494;2023-04-27T07:24:55;3.90;;;2.35;;
39956;SDS011;48483;44.640;7.494;2023-04-27T07:27:21;6.43;;;2.72;;
39956;SDS011;48483;44.640;7.494;2023-04-27T07:29:48;6.80;;;2.42;;
39956;SDS011;48483;44.640;7.494;2023-04-27T07:32:14;3.83;;;2.38;;
39956;SDS011;48483;44.640;7.494;2023-04-27T07:34:41;4.75;;;2.65;;
39956;SDS011;48483;44.640;7.494;2023-04-27T07:37:08;8.15;;;2.78;;
39956;SDS011;48483;44.640;7.494;2023-04-27T07:39:35;5.32;;;2.80;;
39956;SDS011;48483;44.640;7.494;2023-04-27T07:42:03;6.07;;;3.05;;
39956;SDS011;48483;44.640;7.494;2023-04-27T07:44:30;8.18;;;3.55;;
39956;SDS011;48483;44.640;7.494;2023-04-27T07:46:57;4.85;;;2.67;;
39956;SDS011;48483;44.640;7.494;2023-04-27T07:49:23;8.70;;;4.35;;
39956;SDS011;48483;44.640;7.494;2023-04-27T07:51:51;5.25;;;2.55;;
39956;SDS011;48483;44.640;7.494;2023-04-27T07:54:17;4.97;;;2.63;;
39956;SDS011;48483;44.640;7.494;2023-04-27T07:56:44;3.60;;;2.45;;
39956;SDS011;48483;44.640;7.494;2023-04-27T07:59:12;8.43;;;3.40;;
39956;SDS011;48483;44.640;7.494;2023-04-27T08:01:40;6.82;;;2.65;;
39956;SDS011;48483;44.640;7.494;2023-04-27T08:04:06;5.72;;;2.67;;
39956;SDS011;48483;44.640;7.494;2023-04-27T08:06:33;6.40;;;2.35;;
39956;SDS011;48483;44.640;7.494;2023-04-27T08:08:59;5.45;;;2.40;;
39956;SDS011;48483;44.640;7.494;2023-04-27T08:11:28;5.28;;;2.85;;
39956;SDS011;48483;44.640;7.494;2023-04-27T08:13:55;10.70;;;3.17;;
39956;SDS011;48483;44.640;7.494;2023-04-27T08:16:23;6.53;;;2.72;;
39956;SDS011;48483;44.640;7.494;2023-04-27T08:18:49;9.02;;;4.43;;
39956;SDS011;48483;44.640;7.494;2023-04-27T08:21:16;6.03;;;3.92;;
39956;SDS011;48483;44.640;7.494;2023-04-27T08:23:42;6.20;;;3.30;;
39956;SDS011;48483;44.640;7.494;2023-04-27T08:26:12;9.82;;;3.80;;
39956;SDS011;48483;44.640;7.494;2023-04-27T08:28:39;5.07;;;3.22;;
39956;SDS011;48483;44.640;7.494;2023-04-27T08:31:05;9.25;;;3.75;;
39956;SDS011;48483;44.640;7.494;2023-04-27T08:33:33;5.75;;;3.20;;
39956;SDS011;48483;44.640;7.494;2023-04-27T08:36:00;7.70;;;3.67;;
39956;SDS011;48483;44.640;7.494;2023-04-27T08:38:27;5.05;;;3.22;;
39956;SDS011;48483;44.640;7.494;2023-04-27T08:40:53;9.27;;;4.47;;
39956;SDS011;48483;44.640;7.494;2023-04-27T08:43:20;6.95;;;4.32;;
39956;SDS011;48483;44.640;7.494;2023-04-27T08:45:47;6.32;;;3.72;;
39956;SDS011;48483;44.640;7.494;2023-04-27T08:48:18;8.85;;;5.22;;
39956;SDS011;48483;44.640;7.494;2023-04-27T08:50:47;9.55;;;4.75;;
39956;SDS011;48483;44.640;7.494;2023-04-27T08:53:16;7.82;;;4.97;;
39956;SDS011;48483;44.640;7.494;2023-04-27T08:55:43;7.68;;;4.68;;
39956;SDS011;48483;44.640;7.494;2023-04-27T08:58:10;7.03;;;4.22;;
39956;SDS011;48483;44.640;7.494;2023-04-27T09:00:37;10.07;;;4.15;;
39956;SDS011;48483;44.640;7.494;2023-04-27T09:03:06;8.23;;;4.45;;
39956;SDS011;48483;44.640;7.494;2023-04-27T09:05:33;8.32;;;4.13;;
39956;SDS011;48483;44.640;7.494;2023-04-27T09:08:01;8.25;;;4.15;;
39956;SDS011;48483;44.640;7.494;2023-04-27T09:13:07;7.07;;;4.65;;
39956;SDS011;48483;44.640;7.494;2023-04-27T09:15:39;10.32;;;4.60;;
39956;SDS011;48483;44.640;7.494;2023-04-27T09:18:10;11.00;;;4.85;;
39956;SDS011;48483;44.640;7.494;2023-04-27T09:20:44;6.75;;;4.65;;
39956;SDS011;48483;44.640;7.494;2023-04-27T09:23:25;9.02;;;4.88;;
39956;SDS011;48483;44.640;7.494;2023-04-27T09:25:55;7.38;;;4.38;;
39956;SDS011;48483;44.640;7.494;2023-04-27T09:28:23;8.90;;;4.28;;
39956;SDS011;48483;44.640;7.494;2023-04-27T09:30:51;12.02;;;5.10;;
39956;SDS011;48483;44.640;7.494;2023-04-27T09:33:22;9.23;;;4.53;;
39956;SDS011;48483;44.640;7.494;2023-04-27T09:35:49;6.85;;;3.70;;
39956;SDS011;48483;44.640;7.494;2023-04-27T09:38:17;8.25;;;4.03;;
39956;SDS011;48483;44.640;7.494;2023-04-27T09:40:45;10.98;;;3.80;;
39956;SDS011;48483;44.640;7.494;2023-04-27T09:43:12;8.07;;;3.42;;
39956;SDS011;48483;44.640;7.494;2023-04-27T09:45:39;8.27;;;4.13;;
39956;SDS011;48483;44.640;7.494;2023-04-27T09:48:06;9.77;;;3.83;;
39956;SDS011;48483;44.640;7.494;2023-04-27T09:50:33;6.65;;;3.42;;
39956;SDS011;48483;44.640;7.494;2023-04-27T09:53:01;6.72;;;3.50;;
39956;SDS011;48483;44.640;7.494;2023-04-27T09:55:31;6.63;;;3.55;;
39956;SDS011;48483;44.640;7.494;2023-04-27T09:58:08;6.50;;;2.75;;
39956;SDS011;48483;44.640;7.494;2023-04-27T10:01:09;4.38;;;2.90;;
39956;SDS011;48483;44.640;7.494;2023-04-27T10:03:46;6.10;;;3.17;;
39956;SDS011;48483;44.640;7.494;2023-04-27T10:09:27;5.22;;;3.47;;
39956;SDS011;48483;44.640;7.494;2023-04-27T10:12:12;7.55;;;3.72;;
39956;SDS011;48483;44.640;7.494;2023-04-27T10:14:48;6.35;;;4.38;;
39956;SDS011;48483;44.640;7.494;2023-04-27T10:17:18;8.98;;;3.78;;
39956;SDS011;48483;44.640;7.494;2023-04-27T10:19:53;10.48;;;3.88;;
39956;SDS011;48483;44.640;7.494;2023-04-27T10:22:21;10.02;;;3.40;;
39956;SDS011;48483;44.640;7.494;2023-04-27T10:24:49;5.93;;;3.10;;
39956;SDS011;48483;44.640;7.494;2023-04-27T10:27:16;7.00;;;3.88;;
39956;SDS011;48483;44.640;7.494;2023-04-27T10:29:47;6.90;;;3.33;;
39956;SDS011;48483;44.640;7.494;2023-04-27T10:32:18;10.57;;;3.53;;
39956;SDS011;48483;44.640;7.494;2023-04-27T10:34:46;4.88;;;3.45;;
39956;SDS011;48483;44.640;7.494;2023-04-27T10:37:14;4.45;;;2.65;;
39956;SDS011;48483;44.640;7.494;2023-04-27T10:39:42;10.52;;;3.67;;
39956;SDS011;48483;44.640;7.494;2023-04-27T10:42:09;4.50;;;1.70;;
39956;SDS011;48483;44.640;7.494;2023-04-27T10:44:36;6.65;;;2.17;;
39956;SDS011;48483;44.640;7.494;2023-04-27T10:47:12;5.78;;;2.88;;
39956;SDS011;48483;44.640;7.494;2023-04-27T10:49:40;3.97;;;2.35;;
39956;SDS011;48483;44.640;7.494;2023-04-27T10:52:07;10.05;;;3.17;;
39956;SDS011;48483;44.640;7.494;2023-04-27T10:54:34;7.68;;;3.67;;
39956;SDS011;48483;44.640;7.494;2023-04-27T10:57:05;6.82;;;2.70;;
39956;SDS011;48483;44.640;7.494;2023-04-27T10:59:33;5.32;;;3.17;;
39956;SDS011;48483;44.640;7.494;2023-04-27T11:02:01;4.78;;;2.72;;
39956;SDS011;48483;44.640;7.494;2023-04-27T11:04:36;8.45;;;4.28;;
39956;SDS011;48483;44.640;7.494;2023-04-27T11:07:05;6.30;;;3.55;;
39956;SDS011;48483;44.640;7.494;2023-04-27T11:09:34;6.55;;;3.63;;
39956;SDS011;48483;44.640;7.494;2023-04-27T11:12:01;9.32;;;3.70;;
39956;SDS011;48483;44.640;7.494;2023-04-27T11:14:28;5.88;;;3.30;;
39956;SDS011;48483;44.640;7.494;2023-04-27T11:16:54;7.97;;;3.10;;
39956;SDS011;48483;44.640;7.494;2023-04-27T11:19:21;6.68;;;3.40;;
39956;SDS011;48483;44.640;7.494;2023-04-27T11:21:49;8.05;;;3.70;;
39956;SDS011;48483;44.640;7.494;2023-04-27T11:24:15;6.07;;;2.80;;
39956;SDS011;48483;44.640;7.494;2023-04-27T11:26:42;6.10;;;2.97;;
39956;SDS011;48483;44.640;7.494;2023-04-27T11:29:09;13.20;;;2.85;;
39956;SDS011;48483;44.640;7.494;2023-04-27T11:31:39;3.53;;;2.25;;
39956;SDS011;48483;44.640;7.494;2023-04-27T11:34:08;3.43;;;1.60;;
39956;SDS011;48483;44.640;7.494;2023-04-27T11:36:40;4.18;;;1.60;;
39956;SDS011;48483;44.640;7.494;2023-04-27T11:39:08;6.10;;;2.10;;
39956;SDS011;48483;44.640;7.494;2023-04-27T11:41:43;5.93;;;2.20;;
39956;SDS011;48483;44.640;7.494;2023-04-27T11:44:11;5.63;;;3.13;;
39956;SDS011;48483;44.640;7.494;2023-04-27T11:46:37;5.63;;;2.20;;
39956;SDS011;48483;44.640;7.494;2023-04-27T11:49:06;5.25;;;2.97;;
39956;SDS011;48483;44.640;7.494;2023-04-27T11:51:35;5.97;;;3.28;;
39956;SDS011;48483;44.640;7.494;2023-04-27T11:54:03;7.20;;;3.67;;
39956;SDS011;48483;44.640;7.494;2023-04-27T11:56:36;8.23;;;4.30;;
39956;SDS011;48483;44.640;7.494;2023-04-27T11:59:03;10.10;;;4.57;;
39956;SDS011;48483;44.640;7.494;2023-04-27T12:01:31;4.97;;;3.25;;
39956;SDS011;48483;44.640;7.494;2023-04-27T12:03:59;7.13;;;3.20;;
39956;SDS011;48483;44.640;7.494;2023-04-27T12:06:26;6.70;;;3.75;;
39956;SDS011;48483;44.640;7.494;2023-04-27T12:08:55;8.30;;;4.15;;
39956;SDS011;48483;44.640;7.494;2023-04-27T12:11:22;6.45;;;3.67;;
39956;SDS011;48483;44.640;7.494;2023-04-27T12:13:51;6.78;;;4.13;;
39956;SDS011;48483;44.640;7.494;2023-04-27T12:16:18;7.35;;;3.92;;
39956;SDS011;48483;44.640;7.494;2023-04-27T12:18:46;6.05;;;4.25;;
39956;SDS011;48483;44.640;7.494;2023-04-27T12:21:13;7.18;;;4.53;;
39956;SDS011;48483;44.640;7.494;2023-04-27T12:23:40;9.07;;;4.60;;
39956;SDS011;48483;44.640;7.494;2023-04-27T12:26:07;11.43;;;4.38;;
39956;SDS011;48483;44.640;7.494;2023-04-27T12:28:34;6.30;;;3.75;;
39956;SDS011;48483;44.640;7.494;2023-04-27T12:31:03;8.60;;;4.70;;
39956;SDS011;48483;44.640;7.494;2023-04-27T12:33:30;4.95;;;3.88;;
39956;SDS011;48483;44.640;7.494;2023-04-27T12:35:57;9.18;;;4.20;;
39956;SDS011;48483;44.640;7.494;2023-04-27T12:38:23;6.88;;;3.97;;
39956;SDS011;48483;44.640;7.494;2023-04-27T12:40:50;7.40;;;3.90;;
39956;SDS011;48483;44.640;7.494;2023-04-27T12:43:16;8.80;;;4.03;;
39956;SDS011;48483;44.640;7.494;2023-04-27T12:45:43;8.00;;;3.72;;
39956;SDS011;48483;44.640;7.494;2023-04-27T12:48:11;7.78;;;3.72;;
39956;SDS011;48483;44.640;7.494;2023-04-27T12:50:38;9.23;;;3.78;;
39956;SDS011;48483;44.640;7.494;2023-04-27T12:53:05;6.68;;;3.30;;
39956;SDS011;48483;44.640;7.494;2023-04-27T12:55:32;7.15;;;3.78;;
39956;SDS011;48483;44.640;7.494;2023-04-27T12:57:58;8.05;;;4.43;;
39956;SDS011;48483;44.640;7.494;2023-04-27T13:00:25;7.50;;;2.92;;
39956;SDS011;48483;44.640;7.494;2023-04-27T13:02:52;5.10;;;3.13;;
39956;SDS011;48483;44.640;7.494;2023-04-27T13:05:20;6.82;;;3.58;;
39956;SDS011;48483;44.640;7.494;2023-04-27T13:07:47;5.38;;;3.28;;
39956;SDS011;48483;44.640;7.494;2023-04-27T13:10:13;5.88;;;3.08;;
39956;SDS011;48483;44.640;7.494;2023-04-27T13:12:40;5.43;;;3.10;;
39956;SDS011;48483;44.640;7.494;2023-04-27T13:15:07;4.47;;;3.15;;
39956;SDS011;48483;44.640;7.494;2023-04-27T13:17:34;6.60;;;3.38;;
39956;SDS011;48483;44.640;7.494;2023-04-27T13:20:01;5.80;;;3.00;;
39956;SDS011;48483;44.640;7.494;2023-04-27T13:22:28;6.00;;;3.05;;
39956;SDS011;48483;44.640;7.494;2023-04-27T13:24:55;5.75;;;2.63;;
39956;SDS011;48483;44.640;7.494;2023-04-27T13:27:22;7.97;;;2.65;;
39956;SDS011;48483;44.640;7.494;2023-04-27T13:29:53;6.95;;;2.97;;
39956;SDS011;48483;44.640;7.494;2023-04-27T13:32:19;7.95;;;3.38;;
39956;SDS011;48483;44.640;7.494;2023-04-27T13:34:46;7.28;;;3.38;;
39956;SDS011;48483;44.640;7.494;2023-04-27T13:37:14;4.50;;;3.20;;
39956;SDS011;48483;44.640;7.494;2023-04-27T13:39:42;5.88;;;2.90;;
39956;SDS011;48483;44.640;7.494;2023-04-27T13:42:09;7.78;;;3.15;;
39956;SDS011;48483;44.640;7.494;2023-04-27T13:44:36;6.40;;;3.70;;
39956;SDS011;48483;44.640;7.494;2023-04-27T13:47:02;9.52;;;3.60;;
39956;SDS011;48483;44.640;7.494;2023-04-27T13:49:29;5.28;;;3.25;;
39956;SDS011;48483;44.640;7.494;2023-04-27T13:51:56;6.22;;;3.75;;
39956;SDS011;48483;44.640;7.494;2023-04-27T13:54:23;7.53;;;3.53;;
39956;SDS011;48483;44.640;7.494;2023-04-27T13:56:51;6.60;;;3.50;;
39956;SDS011;48483;44.640;7.494;2023-04-27T13:59:17;7.38;;;3.10;;
39956;SDS011;48483;44.640;7.494;2023-04-27T14:01:44;6.15;;;3.53;;
39956;SDS011;48483;44.640;7.494;2023-04-27T14:04:10;7.40;;;3.03;;
39956;SDS011;48483;44.640;7.494;2023-04-27T14:06:37;9.48;;;4.53;;
39956;SDS011;48483;44.640;7.494;2023-04-27T14:09:04;8.00;;;3.00;;
39956;SDS011;48483;44.640;7.494;2023-04-27T14:11:30;5.47;;;2.67;;
39956;SDS011;48483;44.640;7.494;2023-04-27T14:13:58;6.32;;;3.25;;
39956;SDS011;48483;44.640;7.494;2023-04-27T14:16:25;6.80;;;4.32;;
39956;SDS011;48483;44.640;7.494;2023-04-27T14:18:52;5.35;;;3.90;;
39956;SDS011;48483;44.640;7.494;2023-04-27T14:21:18;4.50;;;2.13;;
39956;SDS011;48483;44.640;7.494;2023-04-27T14:23:45;7.03;;;3.05;;
39956;SDS011;48483;44.640;7.494;2023-04-27T14:26:12;6.72;;;4.45;;
39956;SDS011;48483;44.640;7.494;2023-04-27T14:28:38;5.60;;;3.50;;
39956;SDS011;48483;44.640;7.494;2023-04-27T14:31:07;5.18;;;3.08;;
39956;SDS011;48483;44.640;7.494;2023-04-27T14:33:33;8.88;;;3.28;;
39956;SDS011;48483;44.640;7.494;2023-04-27T14:36:00;6.40;;;2.58;;
39956;SDS011;48483;44.640;7.494;2023-04-27T14:38:26;4.38;;;2.42;;
39956;SDS011;48483;44.640;7.494;2023-04-27T14:40:53;11.77;;;2.65;;
39956;SDS011;48483;44.640;7.494;2023-04-27T14:43:20;4.55;;;2.60;;
39956;SDS011;48483;44.640;7.494;2023-04-27T14:45:46;6.65;;;3.00;;
39956;SDS011;48483;44.640;7.494;2023-04-27T14:48:14;4.20;;;2.55;;
39956;SDS011;48483;44.640;7.494;2023-04-27T14:50:41;6.07;;;3.47;;
39956;SDS011;48483;44.640;7.494;2023-04-27T14:53:07;8.45;;;2.78;;
39956;SDS011;48483;44.640;7.494;2023-04-27T14:55:34;5.80;;;3.10;;